To NAV CANADA Home Page Login to a new session Search on AWWS site Feedback and Comments Disclaimer Vers la page française équivalente Tips FAQ What's new on the site To the Forecasts and Observations / NOTAM section To "File a Flight Plan" website Publications and other links Update of the User's profile FIC Telephone Numbers My Weather Data Folder Route Weather Data Regional Weather Data Local Weather Data To the Forecasts and Observations / NOTAM section
Request Generated 09/02/2015 at 00:16:12 UTC . Weather information available at that time is displayed.

METAR/TAF

TRENTON/ON    

METAR CYTR 020000Z 19003KT 7SM SKC 21/19 A3001 RMK SLP163=
METAR CYTR 012300Z 20003KT 7SM SKC 22/19 A3001 RMK SLP164=
METAR CYTR 012200Z 21005KT 7SM SKC 23/19 A3001 RMK SLP163=

TAF CYTR 012330Z 0200/0224 VRB03KT P6SM SKC
FM020300 VRB03KT P6SM FEW005 TEMPO 0203/0205 3SM BR PROB30
0203/0205 1SM BR OVC005
FM020500 VRB03KT 4SM BR SCT005 TEMPO 0205/0207 2SM BR BKN005
PROB30 0205/0207 1/2SM FG
FM020700 VRB03KT 1/2SM FG VV002 TEMPO 0207/0213 2SM BR SCT002
FM021300 VRB03KT 2SM BR SCT002
FM021500 20005KT P6SM FEW010
FM021700 22008KT P6SM FEW025
RMK NXT FCST BY 020600Z=
Your time UTC time
Weather data provided by Environment Canada and NAV CANADA